Time;durP1;ratioP1;P1;durP2;ratioP2;P2;SDS_P1;SDS_P2;PMS_P1;PMS_P2;Temp;Humidity;BMP_temperature;BMP_pressure;BME280_temperature;BME280_humidity;BME280_pressure;Samples;Min_cycle;Max_cycle;Signal;HPM_P1;HPM_P2
2022/02/17 00:01:19;;;;;;;3.83;2.35;;;12.90;63.80;;;;;;5052860;28;20040;-71
2022/02/17 00:03:45;;;;;;;5.63;2.35;;;12.80;63.80;;;;;;5035515;28;20108;-70
2022/02/17 00:06:11;;;;;;;5.13;2.72;;;12.90;63.80;;;;;;5035424;28;20036;-71
2022/02/17 00:08:36;;;;;;;3.22;2.38;;;12.80;63.70;;;;;;5053189;28;20478;-70
2022/02/17 00:11:02;;;;;;;4.53;2.63;;;12.80;63.60;;;;;;5053607;28;20476;-70
2022/02/17 00:13:28;;;;;;;2.60;2.20;;;12.80;63.60;;;;;;5053373;28;20486;-71
2022/02/17 00:15:54;;;;;;;3.28;2.15;;;12.80;63.60;;;;;;5052834;28;20060;-71
2022/02/17 00:18:23;;;;;;;2.92;2.28;;;12.80;63.80;;;;;;5035194;28;20134;-70
2022/02/17 00:20:52;;;;;;;2.55;2.10;;;12.70;63.80;;;;;;5053087;28;20115;-70
2022/02/17 00:23:18;;;;;;;5.30;3.22;;;12.70;63.80;;;;;;5048474;28;20026;-71
2022/02/17 00:25:45;;;;;;;5.63;2.65;;;12.70;63.80;;;;;;5054646;28;20429;-70
2022/02/17 00:28:10;;;;;;;3.30;3.00;;;12.70;63.80;;;;;;5049796;28;20426;-72
2022/02/17 00:30:36;;;;;;;3.00;2.45;;;12.70;63.90;;;;;;5073221;28;20063;-70
2022/02/17 00:33:02;;;;;;;4.90;2.13;;;12.70;63.90;;;;;;5072977;28;20423;-71
2022/02/17 00:35:30;;;;;;;2.50;2.13;;;12.70;64.10;;;;;;5072355;28;20048;-71
2022/02/17 00:37:56;;;;;;;2.58;1.73;;;12.70;64.30;;;;;;5072926;28;20027;-70
2022/02/17 00:40:22;;;;;;;1.92;1.30;;;12.70;64.30;;;;;;5058921;28;20029;-70
2022/02/17 00:42:47;;;;;;;2.03;1.30;;;12.70;64.70;;;;;;5062658;28;20029;-72
2022/02/17 00:45:13;;;;;;;1.10;0.80;;;12.70;65.00;;;;;;5072937;28;20106;-70
2022/02/17 00:47:41;;;;;;;2.90;0.98;;;12.70;65.30;;;;;;5072710;28;20119;-70
2022/02/17 00:50:07;;;;;;;2.67;1.40;;;12.70;65.70;;;;;;5072868;28;20025;-71
2022/02/17 00:52:33;;;;;;;2.33;1.08;;;12.80;65.80;;;;;;5053776;28;20029;-70
2022/02/17 00:54:58;;;;;;;1.23;0.80;;;12.80;66.20;;;;;;5054686;28;20078;-70
2022/02/17 00:57:24;;;;;;;2.67;1.30;;;12.80;66.20;;;;;;5072281;28;20040;-70
2022/02/17 00:59:50;;;;;;;2.20;0.90;;;12.90;66.40;;;;;;5072706;28;20027;-70
2022/02/17 01:02:16;;;;;;;4.78;1.65;;;12.90;66.50;;;;;;5054667;28;20383;-71
2022/02/17 01:04:42;;;;;;;2.92;1.48;;;13.00;66.70;;;;;;5072386;28;20383;-72
2022/02/17 01:07:07;;;;;;;2.17;0.93;;;13.00;66.80;;;;;;5041366;28;20025;-70
2022/02/17 01:09:33;;;;;;;1.15;0.60;;;13.00;66.90;;;;;;5034755;28;20021;-70
2022/02/17 01:11:59;;;;;;;1.63;0.80;;;13.00;66.80;;;;;;5052264;28;20285;-70
2022/02/17 01:14:25;;;;;;;2.58;1.52;;;13.10;66.80;;;;;;5052245;28;20392;-71
2022/02/17 01:16:51;;;;;;;1.38;0.90;;;13.10;66.80;;;;;;5034599;28;20029;-70
2022/02/17 01:19:17;;;;;;;2.50;1.83;;;13.10;66.70;;;;;;5052495;28;20033;-71
2022/02/17 01:21:43;;;;;;;1.77;1.20;;;13.20;66.70;;;;;;5052639;28;20025;-71
2022/02/17 01:24:08;;;;;;;4.50;0.90;;;13.20;66.80;;;;;;5071191;28;20379;-70
2022/02/17 01:26:34;;;;;;;1.27;0.88;;;13.20;66.80;;;;;;5054433;28;20040;-69
2022/02/17 01:29:00;;;;;;;1.65;1.00;;;13.20;66.70;;;;;;5064754;28;20083;-70
2022/02/17 01:31:26;;;;;;;1.98;1.10;;;13.20;66.70;;;;;;5052457;28;20040;-70
2022/02/17 01:33:52;;;;;;;1.60;0.88;;;13.30;66.70;;;;;;5055679;28;20068;-70
2022/02/17 01:36:18;;;;;;;2.25;1.00;;;13.30;66.80;;;;;;5072316;28;20060;-70
2022/02/17 01:38:44;;;;;;;2.78;0.68;;;13.30;66.70;;;;;;5054456;28;20028;-70
2022/02/17 01:41:11;;;;;;;1.00;0.90;;;13.30;66.80;;;;;;5062051;28;20035;-70
2022/02/17 01:43:37;;;;;;;2.25;1.17;;;13.30;66.80;;;;;;5077681;28;20482;-71
2022/02/17 01:46:05;;;;;;;1.83;1.13;;;13.30;66.90;;;;;;5077564;28;20028;-70
2022/02/17 01:48:31;;;;;;;1.13;0.77;;;13.40;66.90;;;;;;5086558;28;20039;-70
2022/02/17 01:50:57;;;;;;;0.55;0.40;;;13.40;66.90;;;;;;5057826;28;20026;-70
2022/02/17 01:53:23;;;;;;;0.75;0.50;;;13.40;66.80;;;;;;5075740;28;20021;-71
2022/02/17 01:55:52;;;;;;;1.55;0.50;;;13.40;66.80;;;;;;5057553;28;20079;-71
2022/02/17 01:58:18;;;;;;;1.48;0.75;;;13.40;66.70;;;;;;5057549;28;20020;-71
2022/02/17 02:00:45;;;;;;;1.15;0.50;;;13.50;66.80;;;;;;5075399;28;20036;-70
2022/02/17 02:03:12;;;;;;;1.15;0.50;;;13.50;66.80;;;;;;5091068;28;20027;-70
2022/02/17 02:05:38;;;;;;;1.30;0.57;;;13.50;66.70;;;;;;5094500;28;20028;-72
2022/02/17 02:08:08;;;;;;;1.25;0.70;;;13.50;66.70;;;;;;5095047;28;20476;-71
2022/02/17 02:10:34;;;;;;;0.52;0.47;;;13.50;66.70;;;;;;5079853;28;20232;-70
2022/02/17 02:13:00;;;;;;;0.82;0.50;;;13.50;66.60;;;;;;5057364;28;20029;-71
2022/02/17 02:15:29;;;;;;;1.08;0.50;;;13.50;66.60;;;;;;5075179;28;20052;-71
2022/02/17 02:17:55;;;;;;;0.60;0.60;;;13.60;66.60;;;;;;5056921;28;20123;-71
2022/02/17 02:20:21;;;;;;;1.23;0.50;;;13.50;66.50;;;;;;5074547;28;20116;-70
2022/02/17 02:22:47;;;;;;;1.20;0.43;;;13.60;66.60;;;;;;5057082;28;20033;-70
2022/02/17 02:25:13;;;;;;;0.47;0.30;;;13.60;66.50;;;;;;5057008;28;20472;-70
2022/02/17 02:27:39;;;;;;;0.57;0.40;;;13.60;66.50;;;;;;5056976;28;20078;-70
2022/02/17 02:30:08;;;;;;;0.93;0.50;;;13.60;66.50;;;;;;5091918;28;20451;-71
2022/02/17 02:32:34;;;;;;;0.35;0.30;;;13.60;66.30;;;;;;5093916;28;20032;-70
2022/02/17 02:35:00;;;;;;;0.82;0.50;;;13.60;66.30;;;;;;5094668;28;20040;-70
2022/02/17 02:37:26;;;;;;;0.50;0.30;;;13.60;66.20;;;;;;5094697;28;20035;-70
2022/02/17 02:39:52;;;;;;;1.08;0.45;;;13.70;66.20;;;;;;5076945;28;20118;-72
2022/02/17 02:42:21;;;;;;;0.80;0.60;;;13.70;66.10;;;;;;5095015;28;20024;-71
2022/02/17 02:44:47;;;;;;;1.35;0.57;;;13.70;66.10;;;;;;5073061;28;20028;-70
2022/02/17 02:47:13;;;;;;;0.50;0.40;;;13.70;66.00;;;;;;5073452;28;20151;-70
2022/02/17 02:49:39;;;;;;;0.57;0.43;;;13.70;66.20;;;;;;5056579;28;20050;-70
2022/02/17 02:52:05;;;;;;;2.35;0.50;;;13.70;66.00;;;;;;5055612;28;20028;-70
2022/02/17 02:54:31;;;;;;;1.27;0.40;;;13.70;65.90;;;;;;5084286;28;20471;-71
2022/02/17 02:56:57;;;;;;;0.65;0.30;;;13.70;65.80;;;;;;5077994;28;20060;-71
2022/02/17 02:59:23;;;;;;;0.75;0.50;;;13.70;65.90;;;;;;5059452;28;20447;-70
2022/02/17 03:01:48;;;;;;;0.45;0.30;;;13.70;65.70;;;;;;5095202;28;20026;-70
2022/02/17 03:04:14;;;;;;;1.20;0.60;;;13.70;65.70;;;;;;5094836;28;20032;-70
2022/02/17 03:06:40;;;;;;;2.58;0.50;;;13.70;65.60;;;;;;5076619;28;20028;-70
2022/02/17 03:09:06;;;;;;;1.98;0.70;;;13.70;65.50;;;;;;5079181;28;20032;-72
2022/02/17 03:11:32;;;;;;;2.55;1.38;;;13.70;65.40;;;;;;5058820;28;20029;-71
2022/02/17 03:13:58;;;;;;;5.22;0.90;;;13.70;65.30;;;;;;5076481;28;20384;-70
2022/02/17 03:16:27;;;;;;;1.00;0.60;;;13.70;65.30;;;;;;5075985;28;20039;-70
2022/02/17 03:18:55;;;;;;;0.95;0.50;;;13.70;65.40;;;;;;5094584;28;20363;-70
2022/02/17 03:21:21;;;;;;;1.52;0.52;;;13.60;65.60;;;;;;5094515;28;20031;-70
2022/02/17 03:23:47;;;;;;;0.50;0.35;;;13.60;65.70;;;;;;5094490;28;20434;-70
2022/02/17 03:26:13;;;;;;;0.40;0.38;;;13.60;65.60;;;;;;5094144;28;20111;-70
2022/02/17 03:28:39;;;;;;;1.40;0.60;;;13.60;65.70;;;;;;5076161;28;20024;-70
2022/02/17 03:31:05;;;;;;;0.82;0.40;;;13.60;65.70;;;;;;5075575;28;20025;-70
2022/02/17 03:33:31;;;;;;;1.17;0.40;;;13.60;65.70;;;;;;5075854;28;20036;-70
2022/02/17 03:35:57;;;;;;;0.70;0.50;;;13.70;65.80;;;;;;5075630;28;20039;-71
2022/02/17 03:38:22;;;;;;;0.55;0.30;;;13.70;65.80;;;;;;5093850;28;20101;-70
2022/02/17 03:40:48;;;;;;;0.82;0.28;;;13.70;65.70;;;;;;5093812;28;20375;-71
2022/02/17 03:43:14;;;;;;;0.28;0.22;;;13.80;65.90;;;;;;5075884;28;20567;-70
2022/02/17 03:45:40;;;;;;;0.70;0.30;;;13.80;65.70;;;;;;5075961;28;20055;-70
2022/02/17 03:48:06;;;;;;;0.60;0.22;;;13.90;65.70;;;;;;5093842;28;20039;-71
2022/02/17 03:50:32;;;;;;;0.30;0.20;;;13.90;65.60;;;;;;5075923;28;20025;-71
2022/02/17 03:52:58;;;;;;;1.38;0.30;;;13.90;65.50;;;;;;5094342;28;20035;-70
2022/02/17 03:55:24;;;;;;;1.15;0.40;;;14.00;65.40;;;;;;5093934;28;20503;-70
2022/02/17 03:57:50;;;;;;;0.35;0.30;;;14.00;65.30;;;;;;5094022;28;20103;-70
2022/02/17 04:00:16;;;;;;;0.43;0.30;;;14.00;65.10;;;;;;5075680;28;20024;-70
2022/02/17 04:02:41;;;;;;;0.70;0.30;;;14.10;65.20;;;;;;5075566;28;20031;-71
2022/02/17 04:05:07;;;;;;;2.30;0.30;;;14.10;65.00;;;;;;5075827;28;20028;-70
2022/02/17 04:07:34;;;;;;;0.40;0.22;;;14.20;65.00;;;;;;5079178;28;20021;-70
2022/02/17 04:10:00;;;;;;;1.58;0.30;;;14.20;64.90;;;;;;5055572;28;20020;-70
2022/02/17 04:12:26;;;;;;;3.70;0.45;;;14.20;64.90;;;;;;5073194;28;20150;-71
2022/02/17 04:14:51;;;;;;;1.27;0.63;;;14.20;64.80;;;;;;5055443;28;20021;-70
2022/02/17 04:17:17;;;;;;;2.67;0.68;;;14.20;64.60;;;;;;5073443;28;20049;-70
2022/02/17 04:19:43;;;;;;;0.50;0.40;;;14.30;64.60;;;;;;5055494;28;20112;-70
2022/02/17 04:22:09;;;;;;;0.50;0.40;;;14.30;64.50;;;;;;5055304;28;20056;-70
2022/02/17 04:24:35;;;;;;;1.38;0.70;;;14.30;64.40;;;;;;5073568;28;20082;-70
2022/02/17 04:27:00;;;;;;;2.10;0.90;;;14.30;64.50;;;;;;5073212;28;20029;-70
2022/02/17 04:29:26;;;;;;;1.70;0.98;;;14.30;64.40;;;;;;5055281;28;20416;-70
2022/02/17 04:31:52;;;;;;;3.85;1.00;;;14.30;64.30;;;;;;5055010;28;20050;-70
2022/02/17 04:34:18;;;;;;;2.88;0.70;;;14.30;64.40;;;;;;5072946;28;20056;-72
2022/02/17 04:36:44;;;;;;;2.30;1.10;;;14.30;64.50;;;;;;5072875;28;20059;-70
2022/02/17 04:39:10;;;;;;;1.33;0.63;;;14.30;64.40;;;;;;5055204;28;20115;-70
2022/02/17 04:44:20;;;;;;;2.15;1.02;;;14.40;64.40;;;;;;5073311;28;20456;-70
2022/02/17 04:46:46;;;;;;;1.70;0.70;;;14.40;64.30;;;;;;5055155;28;20064;-70
2022/02/17 04:49:12;;;;;;;0.93;0.50;;;14.40;64.30;;;;;;5073188;28;20103;-70
2022/02/17 04:51:37;;;;;;;2.22;0.60;;;14.30;64.20;;;;;;5055057;28;20448;-70
2022/02/17 04:54:03;;;;;;;1.02;0.57;;;14.40;64.20;;;;;;5073104;28;20104;-70
2022/02/17 04:56:29;;;;;;;0.70;0.32;;;14.40;64.00;;;;;;5054897;28;20082;-70
2022/02/17 04:58:55;;;;;;;1.63;0.30;;;14.40;63.80;;;;;;5054975;28;20032;-70
2022/02/17 05:01:21;;;;;;;0.60;0.55;;;14.40;63.60;;;;;;5073372;28;20025;-70
2022/02/17 05:03:46;;;;;;;0.80;0.40;;;14.40;63.60;;;;;;5072571;28;20051;-70
2022/02/17 05:06:12;;;;;;;0.30;0.20;;;14.40;63.30;;;;;;5087135;28;20475;-70
2022/02/17 05:08:38;;;;;;;4.22;0.30;;;14.50;63.20;;;;;;5093086;28;20470;-70
2022/02/17 05:11:04;;;;;;;0.32;0.20;;;14.50;62.70;;;;;;5093054;28;20035;-70
2022/02/17 05:13:30;;;;;;;0.80;0.47;;;14.50;62.20;;;;;;5074831;28;20107;-70
2022/02/17 05:15:56;;;;;;;2.25;1.08;;;14.60;61.90;;;;;;5077834;28;20123;-71
2022/02/17 05:18:22;;;;;;;3.42;0.63;;;14.60;61.50;;;;;;5096590;28;20073;-70
2022/02/17 05:20:47;;;;;;;1.70;1.00;;;14.70;61.00;;;;;;5078522;28;20077;-70
2022/02/17 05:23:13;;;;;;;2.03;0.93;;;14.80;60.80;;;;;;5096517;28;20103;-70
2022/02/17 05:25:39;;;;;;;0.90;0.40;;;14.90;60.90;;;;;;5078369;28;20077;-71
2022/02/17 05:28:06;;;;;;;1.33;0.60;;;15.00;60.30;;;;;;5096420;28;20020;-70
2022/02/17 05:30:40;;;;;;;2.67;0.55;;;15.00;59.90;;;;;;5078379;28;20036;-71
2022/02/17 05:33:14;;;;;;;0.17;0.15;;;15.00;59.50;;;;;;5078556;28;20513;-72
2022/02/17 05:35:40;;;;;;;1.85;0.30;;;15.00;59.50;;;;;;5096052;28;20079;-70
2022/02/17 05:38:07;;;;;;;0.38;0.28;;;14.90;59.40;;;;;;5096595;28;20440;-71
2022/02/17 05:40:33;;;;;;;1.13;0.20;;;15.00;59.40;;;;;;5078552;28;20074;-71
2022/02/17 05:42:59;;;;;;;3.03;0.40;;;15.00;59.30;;;;;;5096334;28;20060;-70
2022/02/17 05:45:28;;;;;;;2.05;0.40;;;15.00;59.30;;;;;;5078131;28;20471;-70
2022/02/17 05:47:56;;;;;;;0.15;0.15;;;15.00;59.50;;;;;;5078255;28;20475;-71
2022/02/17 05:50:22;;;;;;;0.52;0.40;;;15.00;58.90;;;;;;5096225;28;20116;-71
2022/02/17 05:52:49;;;;;;;0.88;0.47;;;15.00;58.80;;;;;;5078127;28;20020;-70
2022/02/17 05:55:18;;;;;;;0.70;0.50;;;15.10;58.70;;;;;;5078008;28;20036;-70
2022/02/17 05:57:44;;;;;;;0.73;0.25;;;15.20;58.60;;;;;;5078137;28;20032;-71
2022/02/17 06:00:11;;;;;;;0.80;0.50;;;15.20;58.20;;;;;;5096140;28;20024;-70
2022/02/17 06:02:37;;;;;;;1.33;0.57;;;15.20;58.00;;;;;;5096318;28;20073;-71
2022/02/17 06:05:03;;;;;;;3.60;0.40;;;15.20;57.50;;;;;;5077796;28;20162;-70
2022/02/17 06:07:29;;;;;;;0.30;0.20;;;15.30;57.30;;;;;;5077809;28;20031;-71
2022/02/17 06:09:55;;;;;;;3.47;0.77;;;15.30;57.00;;;;;;5095936;28;20102;-72
2022/02/17 06:12:21;;;;;;;1.08;0.65;;;15.30;57.00;;;;;;5077878;28;20111;-70
2022/02/17 06:14:47;;;;;;;1.02;0.45;;;15.40;57.00;;;;;;5095836;28;20482;-70
2022/02/17 06:17:13;;;;;;;1.08;0.45;;;15.50;57.10;;;;;;5077533;28;20047;-70
2022/02/17 06:19:39;;;;;;;0.73;0.43;;;15.50;56.50;;;;;;5077605;28;20024;-70
2022/02/17 06:22:05;;;;;;;1.27;0.30;;;15.60;56.40;;;;;;5095936;28;20428;-70
2022/02/17 06:24:32;;;;;;;1.23;0.40;;;15.70;56.00;;;;;;5077625;28;20067;-71
2022/02/17 06:26:57;;;;;;;5.53;0.43;;;15.70;56.10;;;;;;5094374;28;20032;-70
2022/02/17 06:29:23;;;;;;;1.50;0.85;;;15.80;55.60;;;;;;5095223;28;20028;-70
2022/02/17 06:31:49;;;;;;;0.22;0.20;;;15.80;55.60;;;;;;5095619;28;20026;-70
2022/02/17 06:34:15;;;;;;;1.63;0.55;;;15.80;55.20;;;;;;5095162;28;20050;-70
2022/02/17 06:36:41;;;;;;;1.20;0.68;;;15.80;55.30;;;;;;5095398;28;20032;-72
2022/02/17 06:39:07;;;;;;;2.75;0.93;;;15.80;55.30;;;;;;5077174;28;20024;-72
2022/02/17 06:41:33;;;;;;;2.63;0.30;;;15.90;55.00;;;;;;5077395;28;20020;-71
2022/02/17 06:43:58;;;;;;;1.17;0.60;;;15.80;54.70;;;;;;5095541;28;20031;-70
2022/02/17 06:46:24;;;;;;;1.30;0.30;;;15.90;55.00;;;;;;5095248;28;20036;-70
2022/02/17 06:48:50;;;;;;;0.80;0.50;;;15.90;55.00;;;;;;5074769;28;20031;-71
2022/02/17 06:51:16;;;;;;;0.50;0.35;;;15.90;55.20;;;;;;5093011;28;20024;-70
2022/02/17 06:53:42;;;;;;;0.57;0.55;;;16.00;54.90;;;;;;5092104;28;20483;-74
2022/02/17 06:56:08;;;;;;;0.80;0.30;;;16.00;54.90;;;;;;5077994;28;20039;-70
2022/02/17 06:58:34;;;;;;;2.60;0.40;;;16.10;54.60;;;;;;5075165;28;20028;-71
2022/02/17 07:01:00;;;;;;;0.22;0.20;;;16.10;54.20;;;;;;5081063;28;20046;-71
2022/02/17 07:03:27;;;;;;;0.10;0.10;;;16.20;54.10;;;;;;5074680;28;20032;-70
2022/02/17 07:05:53;;;;;;;0.65;0.30;;;16.30;54.10;;;;;;5074684;28;20028;-71
2022/02/17 07:08:19;;;;;;;0.38;0.35;;;16.40;53.90;;;;;;5094712;28;20032;-70
2022/02/17 07:10:56;;;;;;;0.55;0.43;;;16.50;54.00;;;;;;5092712;28;20042;-71
2022/02/17 07:13:27;;;;;;;4.45;1.25;;;16.50;53.60;;;;;;5094016;28;20043;-70
2022/02/17 07:15:53;;;;;;;0.13;0.13;;;16.60;53.40;;;;;;5094768;28;20426;-71
2022/02/17 07:18:19;;;;;;;0.80;0.60;;;16.70;53.20;;;;;;5086714;28;20020;-70
2022/02/17 07:20:47;;;;;;;1.10;0.60;;;16.80;53.00;;;;;;5094590;28;20381;-70
2022/02/17 07:23:17;;;;;;;1.30;0.60;;;16.90;52.90;;;;;;5094738;28;20020;-71
2022/02/17 07:25:47;;;;;;;1.25;0.50;;;17.00;52.60;;;;;;5088285;28;20391;-70
2022/02/17 07:28:13;;;;;;;1.27;0.50;;;17.10;52.40;;;;;;5076939;28;20028;-71
2022/02/17 07:30:41;;;;;;;0.50;0.40;;;17.30;52.50;;;;;;5074413;28;20040;-71
2022/02/17 07:33:08;;;;;;;1.63;0.93;;;17.40;52.30;;;;;;5080740;28;20059;-70
2022/02/17 07:35:34;;;;;;;0.80;0.20;;;17.50;51.90;;;;;;5082664;28;20194;-71
2022/02/17 07:38:00;;;;;;;34.17;1.13;;;17.60;50.80;;;;;;5055035;28;20032;-70
2022/02/17 07:40:26;;;;;;;6.40;1.00;;;17.60;50.10;;;;;;5054761;28;20048;-73
2022/02/17 07:42:52;;;;;;;2.58;0.43;;;17.70;50.20;;;;;;5073511;28;20021;-71
2022/02/17 07:45:18;;;;;;;1.92;0.77;;;17.80;50.70;;;;;;5081147;28;20031;-71
2022/02/17 07:47:47;;;;;;;8.45;0.50;;;17.90;49.90;;;;;;5083541;28;20372;-71
2022/02/17 07:50:17;;;;;;;0.43;0.30;;;18.00;50.30;;;;;;5073820;28;20024;-71
2022/02/17 07:52:43;;;;;;;0.73;0.43;;;18.00;50.00;;;;;;5088099;28;20051;-71
2022/02/17 07:55:10;;;;;;;0.47;0.30;;;18.10;49.50;;;;;;5074909;28;20127;-71
2022/02/17 07:57:36;;;;;;;1.17;0.60;;;18.10;49.30;;;;;;5055827;28;20392;-72
2022/02/17 08:00:05;;;;;;;0.40;0.25;;;18.20;49.40;;;;;;5073937;28;20025;-71
2022/02/17 08:02:31;;;;;;;0.60;0.35;;;18.30;49.30;;;;;;5073747;28;20028;-70
2022/02/17 08:04:59;;;;;;;1.13;0.70;;;18.30;48.30;;;;;;5055777;28;20032;-70
2022/02/17 08:07:25;;;;;;;0.65;0.30;;;18.40;48.70;;;;;;5055648;28;20032;-70
2022/02/17 08:09:53;;;;;;;2.67;0.50;;;18.40;48.10;;;;;;5073687;28;20025;-72
2022/02/17 08:12:19;;;;;;;4.60;0.32;;;18.40;48.50;;;;;;5065348;28;20146;-71
2022/02/17 08:14:45;;;;;;;0.20;0.10;;;18.50;48.60;;;;;;5055463;28;20472;-71
2022/02/17 08:17:11;;;;;;;0.10;0.10;;;18.50;48.50;;;;;;5090021;28;20043;-71
2022/02/17 08:19:37;;;;;;;1.00;0.30;;;18.50;48.20;;;;;;5093512;28;20383;-71
2022/02/17 08:22:03;;;;;;;0.30;0.10;;;18.50;48.80;;;;;;5093575;28;20062;-70
2022/02/17 08:24:29;;;;;;;0.30;0.10;;;18.40;48.50;;;;;;5087954;28;20387;-71
2022/02/17 08:26:57;;;;;;;3.35;0.20;;;18.40;49.00;;;;;;5072166;28;20032;-70
2022/02/17 08:29:24;;;;;;;5.75;3.22;;;18.40;48.50;;;;;;5073844;28;20484;-71
2022/02/17 08:31:50;;;;;;;1.70;1.10;;;18.30;49.40;;;;;;5057387;28;20360;-71
2022/02/17 08:34:17;;;;;;;1.48;0.70;;;18.30;49.50;;;;;;5072697;28;20081;-70
2022/02/17 08:36:43;;;;;;;0.98;0.40;;;18.30;49.70;;;;;;5072356;28;20124;-71
2022/02/17 08:39:09;;;;;;;0.32;0.20;;;18.20;50.30;;;;;;5055021;28;20051;-71
2022/02/17 08:41:36;;;;;;;2.25;0.60;;;18.20;50.40;;;;;;5072531;28;20491;-70
2022/02/17 08:44:03;;;;;;;3.83;0.40;;;18.10;52.10;;;;;;5089309;28;20054;-72
2022/02/17 08:46:29;;;;;;;18.27;0.70;;;17.90;55.20;;;;;;5078681;28;20476;-74
2022/02/17 08:48:55;;;;;;;5.38;0.57;;;17.70;58.70;;;;;;5054796;28;20028;-82
2022/02/17 08:51:24;;;;;;;5.35;0.65;;;17.40;59.40;;;;;;5059178;28;20086;-76
2022/02/17 08:53:50;;;;;;;2.08;0.40;;;17.00;61.90;;;;;;5096996;28;20032;-73
2022/02/17 08:56:16;;;;;;;4.13;0.57;;;16.70;64.40;;;;;;5078200;28;20036;-75
2022/02/17 08:58:42;;;;;;;1.48;0.40;;;16.30;65.00;;;;;;5059002;28;20126;-75
2022/02/17 09:01:08;;;;;;;2.15;0.30;;;15.90;66.70;;;;;;5088531;28;20731;-75
2022/02/17 09:03:35;;;;;;;5.43;0.38;;;15.70;68.20;;;;;;5076457;28;20036;-75
2022/02/17 09:06:01;;;;;;;0.73;0.28;;;15.50;69.50;;;;;;5097184;28;20387;-76
2022/02/17 09:08:27;;;;;;;1.10;0.30;;;15.40;70.60;;;;;;5074666;28;20035;-74
2022/02/17 09:10:54;;;;;;;0.68;0.20;;;15.30;71.40;;;;;;5077008;28;20032;-74
2022/02/17 09:13:20;;;;;;;4.57;0.55;;;15.20;72.40;;;;;;5076514;28;20048;-74
2022/02/17 09:15:46;;;;;;;1.27;0.60;;;15.20;73.00;;;;;;5076335;28;20119;-74
2022/02/17 09:18:12;;;;;;;1.63;0.40;;;15.20;73.40;;;;;;5079549;28;20440;-74
2022/02/17 09:20:39;;;;;;;1.00;0.20;;;15.10;73.70;;;;;;5082014;28;20051;-74
2022/02/17 09:23:06;;;;;;;2.20;0.43;;;15.10;74.00;;;;;;5076723;28;20348;-74
2022/02/17 09:25:32;;;;;;;2.35;0.50;;;15.00;73.90;;;;;;5096907;28;20104;-74
2022/02/17 09:27:58;;;;;;;1.95;0.30;;;15.00;74.10;;;;;;5078019;28;20109;-73
2022/02/17 09:30:24;;;;;;;1.77;0.85;;;14.90;73.70;;;;;;5096447;28;20066;-74
2022/02/17 09:32:50;;;;;;;1.55;0.55;;;14.80;73.90;;;;;;5085437;28;20044;-74
2022/02/17 09:35:16;;;;;;;1.15;0.38;;;14.70;74.30;;;;;;5057817;28;20427;-74
2022/02/17 09:37:42;;;;;;;9.00;0.70;;;14.70;75.00;;;;;;5075784;28;20025;-74
2022/02/17 09:40:08;;;;;;;2.95;0.50;;;14.60;74.80;;;;;;5075737;28;20032;-75
2022/02/17 09:42:38;;;;;;;4.32;0.80;;;14.50;75.80;;;;;;5075559;28;20464;-74
2022/02/17 09:45:09;;;;;;;5.22;1.00;;;14.50;75.30;;;;;;5057018;28;20030;-74
2022/02/17 09:47:39;;;;;;;2.25;0.80;;;14.50;75.40;;;;;;5075613;28;20021;-74
2022/02/17 09:50:08;;;;;;;3.47;1.00;;;14.40;75.40;;;;;;5075913;28;20028;-74
2022/02/17 09:52:35;;;;;;;3.60;1.10;;;14.40;75.60;;;;;;5061860;28;20437;-74
2022/02/17 09:55:02;;;;;;;3.22;0.93;;;14.40;76.30;;;;;;5077754;28;20502;-73
2022/02/17 09:57:31;;;;;;;6.22;1.10;;;14.40;76.50;;;;;;5080996;28;20491;-74
2022/02/17 09:59:57;;;;;;;5.68;1.58;;;14.30;75.90;;;;;;5086797;28;20025;-74
2022/02/17 10:02:25;;;;;;;4.68;1.27;;;14.30;75.70;;;;;;5091066;28;20529;-75
2022/02/17 10:04:55;;;;;;;6.07;1.67;;;14.20;75.50;;;;;;5075309;28;20517;-74
2022/02/17 10:07:35;;;;;;;4.15;1.27;;;14.10;75.00;;;;;;5074255;28;20107;-74
2022/02/17 10:10:05;;;;;;;4.40;1.17;;;14.10;75.10;;;;;;5057519;28;20037;-74
2022/02/17 10:12:54;;;;;;;5.53;1.75;;;14.10;75.40;;;;;;5073439;28;20036;-74
2022/02/17 10:15:35;;;;;;;10.30;1.73;;;14.00;75.20;;;;;;5057443;28;20060;-74
2022/02/17 10:18:04;;;;;;;9.48;1.95;;;14.00;74.80;;;;;;5067740;28;20377;-74
2022/02/17 10:20:50;;;;;;;6.35;2.17;;;13.90;75.10;;;;;;5037385;28;20029;-74
2022/02/17 10:23:16;;;;;;;11.57;1.98;;;13.90;74.40;;;;;;5055302;28;20032;-74
2022/02/17 10:26:06;;;;;;;8.48;1.40;;;13.80;75.50;;;;;;5046184;28;20387;-74
2022/02/17 10:28:38;;;;;;;9.10;1.83;;;13.90;75.60;;;;;;5053246;28;20025;-74
2022/02/17 10:31:05;;;;;;;7.22;1.83;;;13.90;76.00;;;;;;5071426;28;20091;-74
2022/02/17 10:33:46;;;;;;;4.88;1.48;;;13.90;76.10;;;;;;5074238;28;20036;-73
2022/02/17 10:36:13;;;;;;;8.25;1.50;;;13.90;75.50;;;;;;5054982;28;20072;-74
2022/02/17 10:38:41;;;;;;;10.02;1.50;;;13.90;75.80;;;;;;5061586;28;20029;-74
2022/02/17 10:41:06;;;;;;;8.02;1.83;;;13.90;76.30;;;;;;5071194;28;20024;-75
2022/02/17 10:43:33;;;;;;;5.88;1.48;;;13.90;76.40;;;;;;5054729;28;20059;-73
2022/02/17 10:46:10;;;;;;;19.88;2.15;;;13.90;76.00;;;;;;5056574;28;20146;-74
2022/02/17 10:48:37;;;;;;;8.05;1.83;;;14.00;76.10;;;;;;5047670;28;20048;-74
2022/02/17 10:51:10;;;;;;;13.82;2.38;;;14.10;76.50;;;;;;5057009;28;20487;-74
2022/02/17 10:53:42;;;;;;;7.57;1.55;;;14.00;76.10;;;;;;5057060;28;20480;-74
2022/02/17 10:56:14;;;;;;;11.00;1.88;;;14.10;76.20;;;;;;5055958;28;20033;-74
2022/02/17 10:58:50;;;;;;;8.00;1.38;;;14.10;75.20;;;;;;5055051;28;20025;-74
2022/02/17 11:01:18;;;;;;;8.13;1.95;;;14.10;75.20;;;;;;5041724;28;20036;-73
2022/02/17 11:03:44;;;;;;;7.75;1.73;;;14.20;75.40;;;;;;5072944;28;20028;-75
2022/02/17 11:06:12;;;;;;;8.10;1.50;;;14.20;75.90;;;;;;5074749;28;20056;-73
2022/02/17 11:08:39;;;;;;;4.97;1.73;;;14.20;75.90;;;;;;5074747;28;20095;-73
2022/02/17 11:11:06;;;;;;;9.50;2.63;;;14.20;76.30;;;;;;5069717;28;20033;-73
2022/02/17 11:13:33;;;;;;;6.47;1.85;;;14.30;76.70;;;;;;5073883;28;20016;-73
2022/02/17 11:16:02;;;;;;;6.65;2.00;;;14.30;76.40;;;;;;5056531;28;20028;-74
2022/02/17 11:18:29;;;;;;;4.68;1.52;;;14.40;76.50;;;;;;5056693;28;20032;-73
2022/02/17 11:20:56;;;;;;;10.85;1.52;;;14.40;76.20;;;;;;5074423;28;20021;-75
2022/02/17 11:23:35;;;;;;;7.88;1.45;;;14.40;76.00;;;;;;5056850;28;20062;-73
2022/02/17 11:26:03;;;;;;;7.10;1.67;;;14.40;75.50;;;;;;5074059;28;20020;-73
2022/02/17 11:28:36;;;;;;;5.85;1.73;;;14.40;76.20;;;;;;5056234;28;20028;-73
2022/02/17 11:31:08;;;;;;;6.72;1.83;;;14.50;76.40;;;;;;5056020;28;20024;-73
2022/02/17 11:33:41;;;;;;;5.25;1.38;;;14.60;76.70;;;;;;5073820;28;20032;-74
2022/02/17 11:36:22;;;;;;;7.85;1.63;;;14.60;76.50;;;;;;5074016;28;20091;-73
2022/02/17 11:38:59;;;;;;;8.07;1.90;;;14.70;76.30;;;;;;5074369;28;20039;-73
2022/02/17 11:41:31;;;;;;;9.95;1.65;;;14.70;75.90;;;;;;5056176;28;20353;-73
2022/02/17 11:44:18;;;;;;;6.07;1.27;;;14.70;75.60;;;;;;5073985;28;20052;-73
2022/02/17 11:46:45;;;;;;;10.70;1.90;;;14.70;74.60;;;;;;5055930;28;20024;-74
2022/02/17 11:49:35;;;;;;;5.35;1.67;;;14.70;75.00;;;;;;5055893;28;20088;-73
2022/02/17 11:52:12;;;;;;;7.60;1.55;;;14.60;74.90;;;;;;5055809;28;20112;-74
2022/02/17 11:54:38;;;;;;;8.38;1.27;;;14.50;73.60;;;;;;5055837;28;20030;-74
2022/02/17 11:57:37;;;;;;;6.05;1.55;;;14.50;74.40;;;;;;5035754;28;20492;-73
2022/02/17 12:00:34;;;;;;;12.15;2.03;;;14.40;74.00;;;;;;5035878;28;20025;-73
2022/02/17 12:03:01;;;;;;;12.23;1.80;;;14.30;73.90;;;;;;4975468;28;20046;-74
2022/02/17 12:05:28;;;;;;;10.40;2.17;;;14.30;74.30;;;;;;4975639;28;20125;-74
2022/02/17 12:08:24;;;;;;;9.70;2.10;;;14.10;72.40;;;;;;4991960;28;20516;-74
2022/02/17 12:10:50;;;;;;;10.13;2.05;;;14.10;72.70;;;;;;4992055;28;20022;-73
2022/02/17 12:13:28;;;;;;;17.15;2.20;;;14.10;73.90;;;;;;4975521;28;20147;-73
2022/02/17 12:15:54;;;;;;;9.50;1.92;;;13.90;71.90;;;;;;4991718;28;20461;-74
2022/02/17 12:18:20;;;;;;;4.65;1.70;;;13.80;71.20;;;;;;4991918;28;20038;-74
2022/02/17 12:20:45;;;;;;;8.43;1.77;;;13.70;71.70;;;;;;4975430;28;20034;-74
2022/02/17 12:23:17;;;;;;;9.05;1.70;;;13.70;72.80;;;;;;4991777;28;20069;-74
2022/02/17 12:25:44;;;;;;;17.50;2.03;;;13.60;72.70;;;;;;4975547;28;20504;-74
2022/02/17 12:28:12;;;;;;;11.00;2.67;;;13.60;73.20;;;;;;4975430;28;20038;-74
2022/02/17 12:30:46;;;;;;;12.40;2.00;;;13.50;72.60;;;;;;4991607;28;20068;-74
2022/02/17 12:33:16;;;;;;;11.57;2.35;;;13.50;71.90;;;;;;4991620;28;20063;-74
2022/02/17 12:35:44;;;;;;;8.63;2.30;;;13.50;71.50;;;;;;4993003;28;20049;-75
2022/02/17 12:38:15;;;;;;;9.15;1.90;;;13.50;72.20;;;;;;5011971;28;20033;-75
2022/02/17 12:40:42;;;;;;;12.80;2.63;;;13.50;72.70;;;;;;5053587;28;20021;-74
2022/02/17 12:43:09;;;;;;;7.45;1.40;;;13.50;71.60;;;;;;5035342;28;20110;-74
2022/02/17 12:45:45;;;;;;;9.40;1.42;;;13.50;71.80;;;;;;5053165;28;20155;-74
2022/02/17 12:48:14;;;;;;;15.23;2.45;;;13.50;71.10;;;;;;5035219;28;20029;-74
2022/02/17 12:50:42;;;;;;;16.15;2.13;;;13.50;69.60;;;;;;5035239;28;20022;-74